Latest Weather Observations for Onslow Airport

IDW60801

Issued at 7:02 pm WST Saturday 30 April 2016 (issued every 30 minutes, with the page automatically refreshed every 10 minutes)

About weather observations | Map of weather stations | Latest weather observations for WA | Other Formats
Station Details ID: 005017 Name: ONSLOW AIRPORT Lat: -21.67 Lon: 115.11 Height: 10.5 m
Data from the previous 72 hours. | See also: Recent months at Onslow Airport
Date/Time
WST
Temp
°C
App
Temp
°C
Dew
Point
Rel
Hum
%
Delta-T
°C
Wind Press
QNH
hPa
Press
MSL
hPa
Rain
since 9 am
mm
Dir
 
Spd
km/h
Gust
km/h
Spd
kts
Gust
kts
30/07:00pm 24.4 25.9 18.8 71 3.6 NNE 9 11 5 6 1011.4 1011.4 0.0
30/06:30pm 24.9 25.8 18.4 67 4.1 NNE 11 13 6 7 1011.3 1011.3 0.0
30/06:00pm 25.7 26.1 18.1 63 4.8 NW 13 15 7 8 1011.0 1011.0 0.0
30/05:30pm 27.1 26.4 17.3 55 6.1 WNW 17 20 9 11 1010.7 1010.7 0.0
30/05:00pm 28.5 26.6 15.8 46 7.8 WNW 20 24 11 13 1010.5 1010.5 0.0
30/04:30pm 29.7 26.6 13.5 37 9.7 WNW 22 28 12 15 1010.5 1010.5 0.0
30/04:00pm 29.9 26.2 12.8 35 10.1 WNW 24 30 13 16 1010.4 1010.4 0.0
30/03:30pm 29.1 25.8 12.9 37 9.6 WNW 22 28 12 15 1010.2 1010.2 0.0
30/03:00pm 30.4 26.1 11.9 32 10.8 WNW 26 32 14 17 1010.5 1010.5 0.0
30/02:30pm 32.0 27.9 10.1 26 12.5 NNW 22 26 12 14 1010.4 1010.4 0.0
30/02:00pm 31.3 27.1 8.3 24 12.7 NW 20 24 11 13 1010.6 1010.6 0.0
30/01:30pm 32.6 27.0 3.5 16 15.0 NNW 22 26 12 14 1011.0 1011.0 0.0
30/01:00pm 32.6 29.9 2.6 15 15.2 SSE 6 9 3 5 1011.5 1011.5 0.0
30/12:30pm 32.7 28.7 2.7 15 15.3 SSE 13 17 7 9 1011.9 1011.9 0.0
30/12:00pm 32.7 28.3 2.7 15 15.3 SE 15 20 8 11 1012.4 1012.4 0.0
30/11:30am 32.3 27.6 3.3 16 14.9 SE 17 20 9 11 1013.1 1013.1 0.0
30/11:00am 31.5 26.1 2.7 16 14.5 SE 20 26 11 14 1013.3 1013.3 0.0
30/10:30am 29.5 23.5 3.5 19 13.1 SE 24 30 13 16 1013.6 1013.6 0.0
30/10:00am 28.5 21.2 2.7 19 12.8 SSE 30 35 16 19 1013.8 1013.8 0.0
30/09:30am 26.8 19.7 3.3 22 11.6 SSE 30 35 16 19 1013.9 1013.9 0.0
30/09:00am 24.7 18.0 3.9 26 10.3 SSE 28 35 15 19 1014.0 1014.0 0.0
30/08:30am 22.6 16.1 4.6 31 8.9 S 28 35 15 19 1014.1 1014.1 0.0
30/08:00am 21.4 15.5 4.0 32 8.4 S 24 32 13 17 1013.8 1013.8 0.0
30/07:30am 20.4 15.3 4.0 34 7.9 S 20 26 11 14 1013.6 1013.6 0.0
30/07:00am 18.3 13.3 4.5 40 6.6 SSW 20 24 11 13 1013.3 1013.3 0.0
30/06:30am 18.0 12.5 4.2 40 6.5 SSW 22 28 12 15 1013.2 1013.2 0.0
30/06:00am 18.3 12.5 4.5 40 6.6 SSW 24 30 13 16 1013.1 1013.1 0.0
30/05:30am 18.2 13.2 4.7 41 6.5 SSW 20 28 11 15 1013.2 1013.2 0.0
30/05:00am 19.2 13.8 4.6 38 7.0 SSW 22 28 12 15 1013.0 1013.0 0.0
30/04:30am 19.5 13.8 4.8 38 7.1 SSW 24 32 13 17 1013.0 1013.0 0.0
30/04:00am 19.6 14.7 4.9 38 7.1 SSW 20 26 11 14 1012.9 1012.9 0.0
30/03:30am 19.8 14.9 5.1 38 7.2 SSW 20 26 11 14 1012.8 1012.8 0.0
30/03:00am 20.2 15.3 5.1 37 7.4 SSW 20 24 11 13 1012.7 1012.7 0.0
30/02:30am 20.9 15.9 4.5 34 8.0 SSW 20 26 11 14 1012.7 1012.7 0.0
30/02:00am 21.2 15.8 4.3 33 8.2 SSW 22 26 12 14 1012.6 1012.6 0.0
30/01:30am 21.6 15.8 4.2 32 8.5 SSW 24 28 13 15 1012.6 1012.6 0.0
30/01:00am 21.9 16.4 4.0 31 8.7 S 22 28 12 15 1012.5 1012.5 0.0
30/12:30am 22.3 16.4 3.9 30 8.9 S 24 28 13 15 1012.8 1012.8 0.0
30/12:00am 22.6 17.0 3.7 29 9.2 S 22 28 12 15 1012.8 1012.8 0.0
 
Date/Time
WST
Temp
°C
App
Temp
°C
Dew
Point
Rel
Hum
%
Delta-T
°C
Wind Press
QNH
hPa
Press
MSL
hPa
Rain
since 9 am
mm
Dir
 
Spd
km/h
Gust
km/h
Spd
kts
Gust
kts
29/11:30pm 23.1 17.1 3.6 28 9.5 S 24 30 13 16 1013.0 1013.0 0.0
29/11:00pm 23.3 17.2 2.7 26 9.8 S 24 30 13 16 1013.0 1013.0 0.0
29/10:30pm 23.3 17.9 2.2 25 10.0 SSW 20 26 11 14 1013.0 1013.0 0.0
29/10:00pm 23.7 18.2 2.0 24 10.3 SSW 20 28 11 15 1013.2 1013.2 0.0
29/09:30pm 24.5 18.6 1.4 22 10.9 SSW 22 28 12 15 1013.1 1013.1 0.0
29/09:00pm 25.0 18.7 1.8 22 11.0 SSW 24 32 13 17 1012.9 1012.9 0.0
29/08:30pm 24.8 18.6 2.3 23 10.8 SSW 24 28 13 15 1012.7 1012.7 0.0
29/08:00pm 24.9 19.6 3.0 24 10.6 SSW 20 24 11 13 1012.5 1012.5 0.0
29/07:30pm 24.8 20.3 6.1 30 9.6 SW 19 20 10 11 1012.2 1012.2 0.0
29/07:00pm 25.4 21.0 4.5 26 10.5 SSW 17 19 9 10 1012.0 1012.0 0.0
29/06:30pm 27.1 23.3 6.0 26 11.0 SSW 15 19 8 10 1011.7 1011.7 0.0
29/06:00pm 28.6 24.1 4.2 21 12.4 SSW 17 20 9 11 1011.4 1011.4 0.0
29/05:30pm 30.4 25.5 4.2 19 13.5 SSW 19 24 10 13 1011.2 1011.2 0.0
29/05:00pm 31.0 26.1 2.3 16 14.4 SSW 17 22 9 12 1010.9 1010.9 0.0
29/04:30pm 32.5 27.2 1.6 14 15.4 SSW 19 26 10 14 1010.9 1010.9 0.0
29/04:00pm 32.3 27.5 0.4 13 15.6 S 15 20 8 11 1010.8 1010.8 0.0
29/03:30pm 32.8 28.5 0.8 13 15.8 S 13 22 7 12 1010.8 1010.8 0.0
29/03:00pm 33.6 29.4 1.4 13 16.1 S 13 20 7 11 1011.0 1011.0 0.0
29/02:30pm 33.3 28.6 1.2 13 16.0 S 15 22 8 12 1011.0 1011.0 0.0
29/02:00pm 32.4 28.2 1.5 14 15.4 SSE 13 20 7 11 1011.2 1011.2 0.0
29/01:30pm 32.5 27.9 3.5 16 14.9 S 17 24 9 13 1011.6 1011.6 0.0
29/01:00pm 31.4 26.4 3.4 17 14.3 S 19 28 10 15 1012.1 1012.1 0.0
29/12:30pm 31.2 26.3 4.9 19 13.8 S 20 30 11 16 1012.4 1012.4 0.0
29/12:00pm 30.5 25.6 5.0 20 13.3 S 20 30 11 16 1012.9 1012.9 0.0
29/11:30am 29.5 24.0 4.2 20 12.9 SSE 22 32 12 17 1013.1 1013.1 0.0
29/11:00am 28.2 22.2 5.1 23 11.9 SSE 26 32 14 17 1013.5 1013.5 0.0
29/10:30am 27.2 20.2 4.3 23 11.6 SSE 30 35 16 19 1014.2 1014.2 0.0
29/10:00am 26.1 18.8 4.6 25 10.8 SSE 32 39 17 21 1014.3 1014.3 0.0
29/09:30am 24.8 17.5 4.5 27 10.1 SSE 32 43 17 23 1014.5 1014.5 0.0
29/09:00am 23.5 16.4 5.4 31 9.1 S 32 39 17 21 1014.7 1014.7 0.0
29/08:30am 22.5 15.4 5.4 33 8.5 S 32 39 17 21 1014.5 1014.5 0.0
29/08:00am 21.0 14.6 5.0 35 7.9 S 28 35 15 19 1014.4 1014.4 0.0
29/07:30am 19.0 13.0 5.1 40 6.7 SSW 26 33 14 18 1014.5 1014.5 0.0
29/07:00am 18.6 13.4 5.5 42 6.4 SSW 22 28 12 15 1014.1 1014.1 0.0
29/06:30am 18.4 13.3 5.9 44 6.1 SSW 22 28 12 15 1014.1 1014.1 0.0
29/06:00am 18.5 13.8 6.0 44 6.1 SSW 20 26 11 14 1013.9 1013.9 0.0
29/05:30am 18.7 14.0 6.2 44 6.2 SSW 20 28 11 15 1013.5 1013.5 0.0
29/05:00am 19.0 13.5 5.8 42 6.5 SSW 24 30 13 16 1013.2 1013.2 0.0
29/04:30am 19.1 13.7 6.2 43 6.4 SSW 24 32 13 17 1013.1 1013.1 0.0
29/04:00am 19.2 13.4 6.3 43 6.4 SSW 26 32 14 17 1013.0 1013.0 0.0
29/03:30am 19.3 14.4 6.8 44 6.3 SSW 22 28 12 15 1012.9 1012.9 0.0
29/03:00am 19.7 14.2 6.1 41 6.8 SSW 24 32 13 17 1013.0 1013.0 0.0
29/02:30am 20.3 14.9 6.3 40 7.0 SSW 24 28 13 15 1013.1 1013.1 0.0
29/02:00am 20.4 15.1 6.7 41 6.9 SSW 24 30 13 16 1013.0 1013.0 0.0
29/01:30am 20.5 16.1 7.2 42 6.8 SSW 20 24 11 13 1012.9 1012.9 0.0
29/01:00am 20.9 16.5 7.5 42 6.9 SSW 20 24 11 13 1013.2 1013.2 0.0
29/12:30am 21.5 17.5 8.1 42 7.0 SSW 19 24 10 13 1013.7 1013.7 0.0
29/12:00am 22.0 17.7 7.8 40 7.4 SSW 20 26 11 14 1013.5 1013.5 0.0
 
Date/Time
WST
Temp
°C
App
Temp
°C
Dew
Point
Rel
Hum
%
Delta-T
°C
Wind Press
QNH
hPa
Press
MSL
hPa
Rain
since 9 am
mm
Dir
 
Spd
km/h
Gust
km/h
Spd
kts
Gust
kts
28/11:30pm 22.5 18.5 8.2 40 7.5 SSW 19 26 10 14 1013.7 1013.7 0.0
28/11:00pm 22.7 18.3 7.3 37 8.0 SSW 20 28 11 15 1013.8 1013.8 0.0
28/10:30pm 23.3 18.6 7.8 37 8.1 SSW 22 28 12 15 1014.1 1014.1 0.0
28/10:00pm 23.7 19.0 7.8 36 8.4 SSW 22 28 12 15 1014.4 1014.4 0.0
28/09:30pm 23.5 18.9 8.0 37 8.2 SSW 22 30 12 16 1014.3 1014.3 0.0
28/09:00pm 23.8 18.8 8.2 37 8.3 SSW 24 30 13 16 1014.2 1014.2 0.0
28/08:30pm 24.4 19.0 8.0 35 8.7 SSW 26 33 14 18 1014.1 1014.1 0.0
28/08:00pm 24.8 19.5 8.3 35 8.8 SSW 26 33 14 18 1014.1 1014.1 0.0
28/07:30pm 25.1 21.0 8.6 35 8.9 SSW 20 28 11 15 1014.0 1014.0 0.0
28/07:00pm 25.3 20.6 7.9 33 9.3 SSW 22 28 12 15 1013.8 1013.8 0.0
28/06:30pm 25.5 20.8 7.6 32 9.5 SSW 22 32 12 17 1013.3 1013.3 0.0
28/06:00pm 25.8 20.0 7.9 32 9.6 SSW 28 35 15 19 1013.1 1013.1 0.0
28/05:30pm 26.1 20.7 8.1 32 9.7 SSW 26 35 14 19 1012.9 1012.9 0.0
28/05:00pm 26.7 19.9 7.7 30 10.2 SSW 33 43 18 23 1012.7 1012.7 0.0
28/04:30pm 28.0 20.8 7.8 28 10.9 SSW 35 44 19 24 1012.4 1012.4 0.0
28/04:00pm 29.0 22.6 7.0 25 11.8 SSW 30 39 16 21 1012.2 1012.2 0.0
28/03:30pm 29.2 23.1 6.6 24 12.0 S 28 39 15 21 1012.2 1012.2 0.0
28/03:00pm 30.0 24.0 7.2 24 12.3 SSW 28 37 15 20 1011.9 1011.9 0.0
28/02:30pm 28.9 22.2 7.5 26 11.5 SSW 32 39 17 21 1012.1 1012.1 0.0
28/02:00pm 29.3 23.1 7.8 26 11.7 S 30 39 16 21 1012.3 1012.3 0.0
28/01:30pm 29.2 22.7 8.3 27 11.4 S 32 41 17 22 1012.4 1012.4 0.0
28/01:00pm 29.5 22.9 8.5 27 11.6 SSW 33 44 18 24 1012.9 1012.9 0.0
28/12:30pm 30.0 23.4 8.4 26 11.9 SSW 33 43 18 23 1013.0 1013.0 0.0
28/12:00pm 30.3 25.1 8.7 26 12.0 SSW 26 32 14 17 1013.2 1013.2 0.0
28/11:30am 29.4 24.5 8.5 27 11.5 SSW 24 32 13 17 1013.5 1013.5 0.0
28/11:00am 29.1 24.3 8.7 28 11.2 SSW 24 33 13 18 1014.1 1014.1 0.0
28/10:30am 28.4 23.6 8.7 29 10.8 SSW 24 32 13 17 1014.4 1014.4 0.0
28/10:00am 27.6 22.3 8.5 30 10.4 SSW 26 35 14 19 1014.7 1014.7 0.0
28/09:30am 26.6 22.2 9.0 33 9.6 S 22 26 12 14 1014.7 1014.7 0.0
28/09:00am 26.0 20.8 8.9 34 9.3 SSW 26 33 14 18 1014.8 1014.8 0.0
28/08:30am 25.1 20.1 9.4 37 8.6 SSW 26 32 14 17 1014.6 1014.6 0.0
28/08:00am 23.8 18.9 10.1 42 7.5 SSW 26 32 14 17 1014.4 1014.4 0.0
28/07:30am 22.2 17.9 10.7 48 6.3 SSW 24 28 13 15 1014.1 1014.1 0.0
28/07:00am 21.2 18.1 11.5 54 5.4 SW 19 24 10 13 1013.9 1013.9 0.0
28/06:30am 20.8 17.7 11.7 56 5.1 SW 19 24 10 13 1013.5 1013.5 0.0
28/06:00am 20.9 17.9 11.8 56 5.1 SW 19 24 10 13 1013.2 1013.2 0.0
28/05:30am 21.0 18.5 12.2 57 4.9 SW 17 20 9 11 1012.9 1012.9 0.0
28/05:00am 21.4 18.3 12.3 56 5.1 SSW 20 24 11 13 1012.9 1012.9 0.0
28/04:30am 21.4 19.0 12.5 57 5.0 SW 17 20 9 11 1012.9 1012.9 0.0
28/04:00am 21.6 18.8 12.5 56 5.2 SW 19 22 10 12 1012.8 1012.8 0.0
28/03:30am 21.9 19.1 12.5 55 5.3 SW 19 24 10 13 1012.9 1012.9 0.0
28/03:00am 22.5 19.1 12.4 52 5.7 SW 22 28 12 15 1012.9 1012.9 0.0
28/02:30am 22.9 20.0 12.8 53 5.8 SSW 20 26 11 14 1012.9 1012.9 0.0
28/02:00am 23.3 20.6 13.5 54 5.7 SW 20 26 11 14 1013.1 1013.1 0.0
28/01:30am 23.5 21.3 14.5 57 5.3 SW 19 24 10 13 1013.1 1013.1 0.0
28/01:00am 23.7 21.2 15.2 59 5.1 SW 22 26 12 14 1013.3 1013.3 0.0
28/12:30am 24.0 21.6 15.5 59 5.1 SW 22 28 12 15 1013.3 1013.3 0.0
28/12:00am 24.4 22.6 15.9 59 5.2 SW 20 28 11 15 1013.3 1013.3 0.0
 
Date/Time
WST
Temp
°C
App
Temp
°C
Dew
Point
Rel
Hum
%
Delta-T
°C
Wind Press
QNH
hPa
Press
MSL
hPa
Rain
since 9 am
mm
Dir
 
Spd
km/h
Gust
km/h
Spd
kts
Gust
kts
27/11:30pm 24.7 22.7 16.4 60 5.1 SW 22 30 12 16 1013.3 1013.3 0.0
27/11:00pm 25.3 23.6 16.2 57 5.6 SW 20 26 11 14 1013.4 1013.4 0.0
27/10:30pm 26.0 24.1 15.7 53 6.3 SW 20 24 11 13 1013.2 1013.2 0.0
27/10:00pm 26.5 25.2 15.8 51 6.5 SW 17 22 9 12 1013.3 1013.3 0.0
27/09:30pm 26.8 25.6 16.1 52 6.6 SW 17 20 9 11 1013.2 1013.2 0.0
27/09:00pm 27.1 25.4 15.8 50 6.9 SW 19 24 10 13 1013.1 1013.1 0.0
27/08:30pm 27.7 26.2 15.4 47 7.5 SW 17 24 9 13 1013.0 1013.0 0.0
27/08:00pm 28.2 26.4 14.4 42 8.3 SW 17 20 9 11 1013.0 1013.0 0.0
27/07:30pm 29.0 27.0 14.0 39 9.0 SW 17 22 9 12 1012.7 1012.7 0.0

Other Formats:

Comma delimited format used in spreadsheet applications
http://www.bom.gov.au/fwo/IDW60801/IDW60801.95305.axf

JavaScript Object Notation format (JSON) in row-major order
http://www.bom.gov.au/fwo/IDW60801/IDW60801.95305.json